createdAt,value
2022-11-14T00:01:10.220Z,101058.94
2022-11-14T00:03:55.756Z,101053.94
2022-11-14T00:06:40.989Z,101060.81
2022-11-14T00:09:27.579Z,101059.34
2022-11-14T00:12:13.336Z,101055.25
2022-11-14T00:14:58.540Z,101061.19
2022-11-14T00:17:43.960Z,101068.38
2022-11-14T00:20:29.260Z,101069.31
2022-11-14T00:23:14.755Z,101071.06
2022-11-14T00:25:59.910Z,101079.03
2022-11-14T00:28:45.027Z,101066.56
2022-11-14T00:31:30.330Z,101079.66
2022-11-14T00:34:15.724Z,101070.72
2022-11-14T00:37:01.433Z,101074.56
2022-11-14T00:39:48.403Z,101069.50
2022-11-14T00:42:34.724Z,101067.78
2022-11-14T00:45:19.703Z,101071.28
2022-11-14T00:48:05.062Z,101078.06
2022-11-14T00:50:50.647Z,101069.09
2022-11-14T00:53:36.322Z,101073.13
2022-11-14T00:56:21.207Z,101069.50
2022-11-14T00:59:06.738Z,101065.69
2022-11-14T01:01:56.655Z,101057.19
2022-11-14T01:04:42.946Z,101049.72
2022-11-14T01:07:28.097Z,101048.88
2022-11-14T01:10:13.353Z,101035.41
2022-11-14T01:12:58.609Z,101046.41
2022-11-14T01:15:46.151Z,101038.25
2022-11-14T01:18:31.735Z,101037.53
2022-11-14T01:21:17.778Z,101030.19
2022-11-14T01:24:03.219Z,101027.34
2022-11-14T01:26:48.470Z,101033.41
2022-11-14T01:29:33.653Z,101034.66
2022-11-14T01:32:18.873Z,101032.53
2022-11-14T01:35:04.023Z,101035.09
2022-11-14T01:37:49.255Z,101025.31
2022-11-14T01:40:34.946Z,101028.56
2022-11-14T01:43:20.085Z,101024.75
2022-11-14T01:46:25.268Z,101031.28
2022-11-14T01:49:26.865Z,101014.97
2022-11-14T01:52:17.261Z,101010.41
2022-11-14T01:55:06.368Z,101007.16
2022-11-14T01:57:51.509Z,100995.22
2022-11-14T02:00:36.838Z,101005.16
2022-11-14T02:03:21.960Z,101014.22
2022-11-14T02:06:09.439Z,101009.88
2022-11-14T02:08:56.495Z,101002.00
2022-11-14T02:11:46.118Z,101008.22
2022-11-14T02:14:33.118Z,101007.34
2022-11-14T02:17:34.747Z,101010.59
2022-11-14T02:20:31.701Z,100992.75
2022-11-14T02:23:30.222Z,100999.81
2022-11-14T02:26:21.525Z,100997.59
2022-11-14T02:29:08.508Z,100998.97
2022-11-14T02:31:53.574Z,100989.53
2022-11-14T02:34:39.524Z,100984.22
2022-11-14T02:37:24.684Z,100993.88
2022-11-14T02:40:10.793Z,100992.78
2022-11-14T02:42:56.575Z,101002.28
2022-11-14T02:45:41.853Z,101014.03
2022-11-14T02:48:27.390Z,101004.94
2022-11-14T02:51:12.832Z,101005.16
2022-11-14T02:53:57.908Z,100994.63
2022-11-14T02:56:43.200Z,100991.66
2022-11-14T02:59:28.491Z,100998.44
2022-11-14T03:02:14.389Z,101004.53
2022-11-14T03:04:59.671Z,101008.38
2022-11-14T03:07:44.958Z,100994.59
2022-11-14T03:10:30.220Z,100999.97
2022-11-14T03:13:15.656Z,100992.75
2022-11-14T03:16:08.900Z,100997.22
2022-11-14T03:18:54.159Z,100988.53
2022-11-14T03:21:39.153Z,100990.25
2022-11-14T03:24:25.580Z,100982.97
2022-11-14T03:27:11.064Z,100978.13
2022-11-14T03:29:56.523Z,100981.63
2022-11-14T03:32:41.865Z,100989.75
2022-11-14T03:35:27.210Z,100976.97
2022-11-14T03:38:12.502Z,100977.22
2022-11-14T03:41:00.011Z,100979.00
2022-11-14T03:43:45.314Z,100980.28
2022-11-14T03:46:30.656Z,100980.75
2022-11-14T03:49:15.927Z,100975.38
2022-11-14T03:52:01.223Z,100969.97
2022-11-14T03:54:46.359Z,100967.53
2022-11-14T03:57:31.560Z,100972.06
2022-11-14T04:00:16.873Z,100963.66
2022-11-14T04:03:02.360Z,100956.88
2022-11-14T04:05:47.762Z,100955.03
2022-11-14T04:08:34.146Z,100948.84
2022-11-14T04:11:19.854Z,100948.25
2022-11-14T04:14:05.168Z,100943.69
2022-11-14T04:16:50.063Z,100940.84
2022-11-14T04:19:35.393Z,100942.06
2022-11-14T04:22:20.628Z,100947.91
2022-11-14T04:25:07.271Z,100940.72
2022-11-14T04:27:52.160Z,100938.19
2022-11-14T04:30:37.253Z,100933.38
2022-11-14T04:33:22.760Z,100931.53
2022-11-14T04:36:08.140Z,100931.09
2022-11-14T04:38:53.409Z,100931.09
2022-11-14T04:41:38.709Z,100927.41
2022-11-14T04:44:24.040Z,100926.00
2022-11-14T04:47:09.311Z,100917.72
2022-11-14T04:49:54.450Z,100918.41
2022-11-14T04:52:39.822Z,100923.03
2022-11-14T04:55:25.113Z,100924.72
2022-11-14T04:58:10.114Z,100918.34
2022-11-14T05:00:57.881Z,100915.63
2022-11-14T05:03:44.201Z,100920.69
2022-11-14T05:06:29.192Z,100921.31
2022-11-14T05:09:14.235Z,100916.63
2022-11-14T05:11:59.344Z,100919.06
2022-11-14T05:14:44.433Z,100914.47
2022-11-14T05:17:29.981Z,100902.63
2022-11-14T05:20:15.360Z,100904.66
2022-11-14T05:23:00.610Z,100903.25
2022-11-14T05:25:46.310Z,100907.88
2022-11-14T05:28:32.052Z,100902.22
2022-11-14T05:31:18.146Z,100906.19
2022-11-14T05:34:03.431Z,100902.66
2022-11-14T05:36:48.888Z,100910.28
2022-11-14T05:39:34.312Z,100906.59
2022-11-14T05:42:19.328Z,100909.75
2022-11-14T05:45:04.684Z,100917.88
2022-11-14T05:47:49.755Z,100916.59
2022-11-14T05:50:36.127Z,100922.88
2022-11-14T05:53:21.546Z,100923.78
2022-11-14T05:56:10.712Z,100929.91
2022-11-14T05:58:56.085Z,100921.13
2022-11-14T06:01:41.245Z,100913.28
2022-11-14T06:04:27.324Z,100914.34
2022-11-14T06:07:17.457Z,100914.00
2022-11-14T06:10:05.366Z,100907.78
2022-11-14T06:12:50.818Z,100912.88
2022-11-14T06:15:36.077Z,100912.88
2022-11-14T06:18:21.428Z,100910.47
2022-11-14T06:21:10.214Z,100914.47
2022-11-14T06:23:55.530Z,100923.91
2022-11-14T06:26:42.049Z,100916.72
2022-11-14T06:29:30.189Z,100914.16
2022-11-14T06:32:19.187Z,100918.34
2022-11-14T06:35:04.978Z,100931.28
2022-11-14T06:37:50.398Z,100928.44
2022-11-14T06:40:35.718Z,100928.59
2022-11-14T06:43:21.091Z,100930.06
2022-11-14T06:46:07.972Z,100932.47
2022-11-14T06:48:53.081Z,100929.97
2022-11-14T06:51:38.511Z,100930.44
2022-11-14T06:54:23.711Z,100931.34
2022-11-14T06:57:08.729Z,100930.38
2022-11-14T06:59:54.031Z,100924.97
2022-11-14T07:02:39.410Z,100935.22
2022-11-14T07:05:24.604Z,100929.06
2022-11-14T07:08:09.957Z,100930.78
2022-11-14T07:11:00.524Z,100941.03
2022-11-14T07:13:45.612Z,100943.34
2022-11-14T07:16:33.331Z,100945.22
2022-11-14T07:19:18.785Z,100948.94
2022-11-14T07:22:03.885Z,100943.06
2022-11-14T07:24:49.093Z,100954.78
2022-11-14T07:27:34.086Z,100959.84
2022-11-14T07:30:19.349Z,100951.81
2022-11-14T07:33:04.667Z,100950.25
2022-11-14T07:35:51.590Z,100952.44
2022-11-14T07:38:37.806Z,100952.16
2022-11-14T07:41:22.868Z,100950.63
2022-11-14T07:44:08.320Z,100948.38
2022-11-14T07:46:53.639Z,100941.59
2022-11-14T07:49:38.722Z,100945.53
2022-11-14T07:52:24.115Z,100936.97
2022-11-14T07:55:09.518Z,100939.25
2022-11-14T07:57:55.396Z,100943.91
2022-11-14T08:00:44.095Z,100944.59
2022-11-14T08:03:29.882Z,100948.66
2022-11-14T08:06:16.438Z,100950.38
2022-11-14T08:09:01.493Z,100954.59
2022-11-14T08:11:47.834Z,100951.38
2022-11-14T08:14:33.203Z,100944.91
2022-11-14T08:17:18.477Z,100938.66
2022-11-14T08:20:04.956Z,100945.94
2022-11-14T08:22:50.286Z,100929.25
2022-11-14T08:25:35.496Z,100934.91
2022-11-14T08:28:20.879Z,100931.72
2022-11-14T08:31:06.511Z,100932.03
2022-11-14T08:33:54.986Z,100925.25
2022-11-14T08:36:40.447Z,100924.88
2022-11-14T08:39:25.737Z,100920.94
2022-11-14T08:42:10.822Z,100929.34
2022-11-14T08:44:56.207Z,100920.28
2022-11-14T08:47:41.381Z,100915.31
2022-11-14T08:50:26.716Z,100921.34
2022-11-14T08:53:12.074Z,100919.41
2022-11-14T08:55:57.334Z,100924.22
2022-11-14T08:58:42.461Z,100925.53
2022-11-14T09:01:27.762Z,100928.78
2022-11-14T09:04:13.346Z,100930.09
2022-11-14T09:06:59.086Z,100918.94
2022-11-14T09:09:44.424Z,100911.81
2022-11-14T09:12:29.659Z,100912.78
2022-11-14T09:15:15.268Z,100913.53
2022-11-14T09:18:00.727Z,100911.91
2022-11-14T09:20:46.469Z,100897.97
2022-11-14T09:23:32.660Z,100909.78
2022-11-14T09:26:21.273Z,100901.34
2022-11-14T09:29:06.683Z,100895.22
2022-11-14T09:31:55.154Z,100902.50
2022-11-14T09:34:43.717Z,100906.09
2022-11-14T09:37:29.956Z,100906.41
2022-11-14T09:40:15.367Z,100903.63
2022-11-14T09:43:03.425Z,100893.22
2022-11-14T09:45:52.316Z,100894.66
2022-11-14T09:48:37.671Z,100890.09
2022-11-14T09:51:30.366Z,100888.22
2022-11-14T09:54:22.902Z,100891.38
2022-11-14T09:57:18.679Z,100881.03
2022-11-14T10:00:15.320Z,100882.97
2022-11-14T10:03:19.362Z,100874.13
2022-11-14T10:06:38.247Z,100872.19
2022-11-14T10:09:48.137Z,100861.34
2022-11-14T10:12:56.155Z,100862.16
2022-11-14T10:16:11.965Z,100854.69
2022-11-14T10:19:20.488Z,100846.59
2022-11-14T10:22:43.595Z,100840.78
2022-11-14T10:25:44.360Z,100847.25
2022-11-14T10:29:07.629Z,100842.09
2022-11-14T10:32:01.893Z,100838.69
2022-11-14T10:35:12.755Z,100829.25
2022-11-14T10:38:01.316Z,100821.59
2022-11-14T10:40:54.013Z,100820.63
2022-11-14T10:43:48.157Z,100810.72
2022-11-14T10:46:47.506Z,100805.72
2022-11-14T10:49:38.615Z,100799.53
2022-11-14T10:52:38.890Z,100801.31
2022-11-14T10:55:43.487Z,100796.56
2022-11-14T10:58:30.503Z,100796.72
2022-11-14T11:01:56.065Z,100795.22
2022-11-14T11:04:42.896Z,100790.00
2022-11-14T11:07:47.824Z,100787.03
2022-11-14T11:10:53.771Z,100776.78
2022-11-14T11:13:52.844Z,100767.06
2022-11-14T11:16:38.355Z,100765.84
2022-11-14T11:19:27.851Z,100760.94
2022-11-14T11:22:35.821Z,100758.41
2022-11-14T11:25:27.480Z,100759.06
2022-11-14T11:28:21.211Z,100744.47
2022-11-14T11:31:08.664Z,100740.31
2022-11-14T11:33:55.293Z,100737.47
2022-11-14T11:36:50.844Z,100749.75
2022-11-14T11:39:41.833Z,100740.81
2022-11-14T11:43:36.831Z,100734.47
2022-11-14T11:45:48.778Z,100728.88
2022-11-14T11:48:40.846Z,100726.84
2022-11-14T11:51:28.661Z,100722.91
2022-11-14T11:54:16.468Z,100723.69
2022-11-14T11:57:09.669Z,100721.31
2022-11-14T12:00:07.911Z,100720.41
2022-11-14T12:02:55.044Z,100715.59
2022-11-14T12:06:12.779Z,100712.53
2022-11-14T12:09:14.755Z,100713.06
2022-11-14T12:12:07.109Z,100712.81
2022-11-14T12:15:15.718Z,100700.47
2022-11-14T12:18:03.853Z,100704.97
2022-11-14T12:21:16.336Z,100696.91
2022-11-14T12:24:22.190Z,100695.28
2022-11-14T12:27:26.312Z,100684.69
2022-11-14T12:30:14.208Z,100683.19
2022-11-14T12:33:08.082Z,100685.94
2022-11-14T12:36:06.542Z,100687.56
2022-11-14T12:38:54.804Z,100683.63
2022-11-14T12:41:41.695Z,100687.66
2022-11-14T12:44:29.968Z,100665.44
2022-11-14T12:47:24.161Z,100670.84
2022-11-14T12:50:42.459Z,100666.69
2022-11-14T12:53:36.991Z,100662.81
2022-11-14T12:56:53.832Z,100664.53
2022-11-14T12:59:50.009Z,100672.03
2022-11-14T13:02:56.720Z,100661.78
2022-11-14T13:05:57.359Z,100663.00
2022-11-14T13:09:04.729Z,100648.53
2022-11-14T13:12:10.141Z,100645.44
2022-11-14T13:15:36.453Z,100640.25
2022-11-14T13:18:43.754Z,100634.44
2022-11-14T13:21:50.226Z,100635.53
2022-11-14T13:25:11.733Z,100626.16
2022-11-14T13:28:24.778Z,100629.88
2022-11-14T13:31:36.905Z,100628.03
2022-11-14T13:34:59.371Z,100627.66
2022-11-14T13:38:08.906Z,100616.03
2022-11-14T13:41:05.879Z,100617.88
2022-11-14T13:44:12.414Z,100619.94
2022-11-14T13:47:00.475Z,100607.47
2022-11-14T13:49:54.098Z,100609.16
2022-11-14T13:52:48.765Z,100611.75
2022-11-14T13:55:52.019Z,100607.38
2022-11-14T13:58:58.451Z,100597.41
2022-11-14T14:02:02.321Z,100598.81
2022-11-14T14:04:57.608Z,100596.97
2022-11-14T14:08:15.654Z,100596.72
2022-11-14T14:11:16.229Z,100592.41
2022-11-14T14:14:33.234Z,100589.91
2022-11-14T14:17:29.926Z,100583.41
2022-11-14T14:20:32.037Z,100581.78
2022-11-14T14:23:29.937Z,100582.38
2022-11-14T14:26:55.624Z,100590.28
2022-11-14T14:30:00.014Z,100579.91
2022-11-14T14:33:09.906Z,100575.91
2022-11-14T14:35:56.052Z,100568.31
2022-11-14T14:38:41.404Z,100583.22
2022-11-14T14:41:30.593Z,100579.59
2022-11-14T14:44:19.892Z,100581.78
2022-11-14T14:47:32.616Z,100576.88
2022-11-14T14:50:22.511Z,100584.19
2022-11-14T14:53:18.984Z,100579.13
2022-11-14T14:56:07.275Z,100586.50
2022-11-14T14:58:52.600Z,100586.78
2022-11-14T15:01:37.871Z,100589.00
2022-11-14T15:04:27.080Z,100592.06
2022-11-14T15:07:22.239Z,100604.66
2022-11-14T15:10:08.583Z,100598.38
2022-11-14T15:12:54.833Z,100592.81
2022-11-14T15:15:40.443Z,100602.44
2022-11-14T15:18:31.414Z,100592.06
2022-11-14T15:21:30.048Z,100603.47
2022-11-14T15:24:15.297Z,100603.03
2022-11-14T15:27:05.627Z,100600.19
2022-11-14T15:29:57.542Z,100597.81
2022-11-14T15:32:51.095Z,100596.28
2022-11-14T15:35:38.357Z,100601.50
2022-11-14T15:41:30.580Z,100602.25
2022-11-14T15:44:32.461Z,100599.72
2022-11-14T15:47:39.035Z,100596.16
2022-11-14T15:50:32.602Z,100597.50
2022-11-14T15:53:27.700Z,100602.22
2022-11-14T15:56:19.031Z,100601.88
2022-11-14T15:59:04.261Z,100600.25
2022-11-14T16:01:52.587Z,100594.28
2022-11-14T16:04:44.420Z,100598.97
2022-11-14T16:07:32.412Z,100591.19
2022-11-14T16:10:20.469Z,100597.03
2022-11-14T16:13:06.385Z,100597.53
2022-11-14T16:15:51.692Z,100608.06
2022-11-14T16:18:38.199Z,100601.53
2022-11-14T16:21:23.590Z,100599.94
2022-11-14T16:24:19.374Z,100599.66
2022-11-14T16:27:04.895Z,100600.47
2022-11-14T16:29:50.250Z,100605.91
2022-11-14T16:32:35.296Z,100613.19
2022-11-14T16:35:22.908Z,100606.72
2022-11-14T16:38:12.278Z,100600.53
2022-11-14T16:40:58.114Z,100606.34
2022-11-14T16:43:43.628Z,100597.66
2022-11-14T16:46:28.830Z,100598.44
2022-11-14T16:49:17.982Z,100597.50
2022-11-14T16:52:07.171Z,100591.88
2022-11-14T16:54:52.601Z,100587.69
2022-11-14T16:57:38.238Z,100582.25
2022-11-14T17:00:23.399Z,100575.31
2022-11-14T17:03:08.633Z,100584.56
2022-11-14T17:05:56.644Z,100575.69
2022-11-14T17:08:42.081Z,100577.13
2022-11-14T17:11:28.550Z,100576.03
2022-11-14T17:14:13.888Z,100577.34
2022-11-14T17:17:01.985Z,100562.31
2022-11-14T17:19:47.295Z,100568.81
2022-11-14T17:22:32.628Z,100556.84
2022-11-14T17:25:19.130Z,100554.72
2022-11-14T17:28:05.212Z,100559.88
2022-11-14T17:30:50.312Z,100556.66
2022-11-14T17:33:36.943Z,100557.03
2022-11-14T17:36:23.365Z,100546.19
2022-11-14T17:39:09.865Z,100555.88
2022-11-14T17:41:55.222Z,100550.41
2022-11-14T17:44:40.314Z,100554.25
2022-11-14T17:47:25.713Z,100547.78
2022-11-14T17:50:10.907Z,100556.88
2022-11-14T17:52:56.036Z,100561.19
2022-11-14T17:55:41.389Z,100555.09
2022-11-14T17:58:29.276Z,100549.41
2022-11-14T18:01:18.835Z,100551.06
2022-11-14T18:04:06.310Z,100548.91
2022-11-14T18:06:52.853Z,100546.69
2022-11-14T18:09:38.974Z,100544.91
2022-11-14T18:12:24.181Z,100541.00
2022-11-14T18:15:09.556Z,100552.66
2022-11-14T18:17:54.588Z,100542.47
2022-11-14T18:20:40.029Z,100544.09
2022-11-14T18:23:25.561Z,100542.63
2022-11-14T18:26:16.235Z,100542.31
2022-11-14T18:29:04.406Z,100537.50
2022-11-14T18:31:51.253Z,100535.19
2022-11-14T18:34:40.824Z,100545.38
2022-11-14T18:37:25.969Z,100540.19
2022-11-14T18:40:16.621Z,100537.78
2022-11-14T18:43:02.005Z,100536.16
2022-11-14T18:45:47.181Z,100539.09
2022-11-14T18:48:32.839Z,100531.66
2022-11-14T18:51:20.777Z,100526.19
2022-11-14T18:54:12.327Z,100533.25
2022-11-14T18:56:57.859Z,100527.63
2022-11-14T18:59:43.285Z,100523.56
2022-11-14T19:02:30.064Z,100529.84
2022-11-14T19:05:15.299Z,100532.44
2022-11-14T19:08:00.521Z,100533.41
2022-11-14T19:10:45.960Z,100540.72
2022-11-14T19:13:31.592Z,100537.78
2022-11-14T19:16:17.166Z,100543.75
2022-11-14T19:19:02.554Z,100543.28
2022-11-14T19:21:51.401Z,100538.28
2022-11-14T19:24:37.155Z,100531.34
2022-11-14T19:27:22.672Z,100528.63
2022-11-14T19:30:08.342Z,100525.22
2022-11-14T19:32:54.901Z,100526.50
2022-11-14T19:35:40.423Z,100528.47
2022-11-14T19:38:25.621Z,100519.38
2022-11-14T19:41:22.264Z,100515.84
2022-11-14T19:44:07.480Z,100513.09
2022-11-14T19:46:52.852Z,100509.06
2022-11-14T19:49:38.310Z,100513.25
2022-11-14T19:52:23.577Z,100504.88
2022-11-14T19:55:09.003Z,100509.69
2022-11-14T19:57:54.527Z,100515.19
2022-11-14T20:00:39.677Z,100518.56
2022-11-14T20:03:25.006Z,100516.34
2022-11-14T20:06:16.985Z,100506.81
2022-11-14T20:09:06.551Z,100509.25
2022-11-14T20:11:52.085Z,100494.41
2022-11-14T20:14:37.042Z,100493.28
2022-11-14T20:17:22.368Z,100497.13
2022-11-14T20:20:08.126Z,100487.44
2022-11-14T20:22:53.176Z,100484.88
2022-11-14T20:25:38.400Z,100489.38
2022-11-14T20:28:23.682Z,100494.34
2022-11-14T20:31:15.655Z,100484.22
2022-11-14T20:34:01.107Z,100483.06
2022-11-14T20:37:09.980Z,100480.69
2022-11-14T20:39:52.269Z,100487.59
2022-11-14T20:42:38.838Z,100489.72
2022-11-14T20:45:24.917Z,100499.09
2022-11-14T20:48:10.121Z,100493.22
2022-11-14T20:51:11.073Z,100504.19
2022-11-14T20:53:56.594Z,100499.56
2022-11-14T20:56:41.916Z,100490.34
2022-11-14T20:59:27.976Z,100499.56
2022-11-14T21:02:14.599Z,100488.56
2022-11-14T21:05:00.781Z,100475.47
2022-11-14T21:07:46.225Z,100469.22
2022-11-14T21:10:48.094Z,100454.47
2022-11-14T21:13:55.047Z,100450.09
2022-11-14T21:16:40.873Z,100436.53
2022-11-14T21:19:26.315Z,100436.97
2022-11-14T21:22:11.527Z,100435.69
2022-11-14T21:24:56.845Z,100438.03
2022-11-14T21:27:42.118Z,100432.38
2022-11-14T21:30:27.281Z,100435.06
2022-11-14T21:33:12.500Z,100436.25
2022-11-14T21:36:07.313Z,100440.75
2022-11-14T21:39:01.744Z,100436.34
2022-11-14T21:41:49.176Z,100440.72
2022-11-14T21:44:37.179Z,100446.50
2022-11-14T21:47:22.431Z,100440.38
2022-11-14T21:50:07.893Z,100437.47
2022-11-14T21:52:53.216Z,100441.31
2022-11-14T21:55:38.641Z,100437.47
2022-11-14T21:58:24.108Z,100437.78
2022-11-14T22:01:13.385Z,100438.38
2022-11-14T22:04:13.629Z,100433.03
2022-11-14T22:07:01.726Z,100431.00
2022-11-14T22:09:47.201Z,100441.59
2022-11-14T22:12:35.287Z,100437.16
2022-11-14T22:15:20.682Z,100440.09
2022-11-14T22:18:05.780Z,100429.09
2022-11-14T22:20:54.729Z,100426.97
2022-11-14T22:23:40.417Z,100431.84
2022-11-14T22:26:25.378Z,100431.28
2022-11-14T22:29:10.839Z,100436.16
2022-11-14T22:31:56.900Z,100426.84
2022-11-14T22:34:42.332Z,100430.91
2022-11-14T22:37:27.773Z,100425.78
2022-11-14T22:40:13.474Z,100415.31
2022-11-14T22:43:01.614Z,100421.63
2022-11-14T22:45:52.729Z,100424.34
2022-11-14T22:48:38.203Z,100424.50
2022-11-14T22:51:27.356Z,100426.44
2022-11-14T22:54:13.418Z,100424.50
2022-11-14T22:56:58.669Z,100428.09
2022-11-14T22:59:44.390Z,100426.13
2022-11-14T23:02:53.461Z,100423.53
2022-11-14T23:05:39.225Z,100416.78
2022-11-14T23:08:24.528Z,100419.03
2022-11-14T23:11:21.842Z,100406.13
2022-11-14T23:14:06.969Z,100405.44
2022-11-14T23:16:52.229Z,100409.78
2022-11-14T23:19:37.543Z,100400.94
2022-11-14T23:22:22.765Z,100401.22
2022-11-14T23:25:09.850Z,100401.22
2022-11-14T23:27:55.143Z,100397.00
2022-11-14T23:30:40.564Z,100397.00
2022-11-14T23:33:27.304Z,100399.25
2022-11-14T23:36:12.904Z,100403.38
2022-11-14T23:38:58.152Z,100394.56
2022-11-14T23:41:43.292Z,100392.84
2022-11-14T23:44:28.565Z,100392.22
2022-11-14T23:47:14.288Z,100386.28
2022-11-14T23:49:59.289Z,100380.19
2022-11-14T23:52:45.010Z,100377.56
2022-11-14T23:55:30.219Z,100366.97
2022-11-14T23:58:15.450Z,100365.03
